createdAt,value
2022-08-18T00:02:04.211Z,20.24
2022-08-18T00:05:12.995Z,20.26
2022-08-18T00:08:20.393Z,20.11
2022-08-18T00:11:26.958Z,20.06
2022-08-18T00:14:35.754Z,19.97
2022-08-18T00:17:41.573Z,19.77
2022-08-18T00:20:53.816Z,19.75
2022-08-18T00:24:12.923Z,19.73
2022-08-18T00:27:23.209Z,19.71
2022-08-18T00:30:40.822Z,19.56
2022-08-18T00:33:53.218Z,19.57
2022-08-18T00:36:58.794Z,19.70
2022-08-18T00:40:04.939Z,19.71
2022-08-18T00:43:17.795Z,19.72
2022-08-18T00:46:30.850Z,19.66
2022-08-18T00:49:36.717Z,19.70
2022-08-18T00:52:44.149Z,19.80
2022-08-18T00:55:53.876Z,19.92
2022-08-18T00:59:09.198Z,20.02
2022-08-18T01:02:29.594Z,20.08
2022-08-18T01:05:45.370Z,20.01
2022-08-18T01:08:52.293Z,19.79
2022-08-18T01:11:58.489Z,19.74
2022-08-18T01:15:05.760Z,19.82
2022-08-18T01:18:29.973Z,19.79
2022-08-18T01:21:54.502Z,19.83
2022-08-18T01:25:26.384Z,19.80
2022-08-18T01:28:42.743Z,19.97
2022-08-18T01:31:56.466Z,19.99
2022-08-18T01:35:04.445Z,20.01
2022-08-18T01:38:13.640Z,19.87
2022-08-18T01:41:30.412Z,19.89
2022-08-18T01:44:36.782Z,19.84
2022-08-18T01:47:47.354Z,19.80
2022-08-18T01:50:54.670Z,19.86
2022-08-18T01:54:00.736Z,19.78
2022-08-18T01:57:14.748Z,19.68
2022-08-18T02:00:22.239Z,19.66
2022-08-18T02:03:39.241Z,19.68
2022-08-18T02:06:48.026Z,19.69
2022-08-18T02:09:53.677Z,19.56
2022-08-18T02:13:01.985Z,19.47
2022-08-18T02:16:08.907Z,19.41
2022-08-18T02:19:15.484Z,19.43
2022-08-18T02:22:24.968Z,19.48
2022-08-18T02:25:30.510Z,19.56
2022-08-18T02:28:39.151Z,19.61
2022-08-18T02:31:46.304Z,19.72
2022-08-18T02:34:52.061Z,19.78
2022-08-18T02:37:57.644Z,19.86
2022-08-18T02:41:09.641Z,19.89
2022-08-18T02:44:17.871Z,19.82
2022-08-18T02:47:23.728Z,19.57
2022-08-18T02:50:29.307Z,19.37
2022-08-18T02:53:36.020Z,19.05
2022-08-18T02:56:51.441Z,19.07
2022-08-18T03:00:03.591Z,18.87
2022-08-18T03:03:21.147Z,18.50
2022-08-18T03:06:29.199Z,18.35
2022-08-18T03:09:37.591Z,18.46
2022-08-18T03:12:45.406Z,18.55
2022-08-18T03:15:57.064Z,18.61
2022-08-18T03:19:05.443Z,18.43
2022-08-18T03:22:27.635Z,18.48
2022-08-18T03:25:34.914Z,18.50
2022-08-18T03:28:49.905Z,18.32
2022-08-18T03:31:58.389Z,18.12
2022-08-18T03:35:23.723Z,17.97
2022-08-18T03:38:29.258Z,18.06
2022-08-18T03:41:43.605Z,18.00
2022-08-18T03:45:13.427Z,18.00
2022-08-18T03:48:29.280Z,18.16
2022-08-18T03:51:40.275Z,18.02
2022-08-18T03:54:46.776Z,18.05
2022-08-18T03:57:53.259Z,18.15
2022-08-18T04:01:09.138Z,18.09
2022-08-18T04:04:21.688Z,18.12
2022-08-18T04:07:27.237Z,18.02
2022-08-18T04:10:33.449Z,17.91
2022-08-18T04:13:39.512Z,18.03
2022-08-18T04:16:46.179Z,18.20
2022-08-18T04:19:54.733Z,18.30
2022-08-18T04:23:00.304Z,18.44
2022-08-18T04:26:11.410Z,18.50
2022-08-18T04:29:25.830Z,18.66
2022-08-18T04:32:33.745Z,18.79
2022-08-18T04:35:41.951Z,18.97
2022-08-18T04:38:48.418Z,19.28
2022-08-18T04:41:54.981Z,19.55
2022-08-18T04:45:00.890Z,19.87
2022-08-18T04:48:07.439Z,20.14
2022-08-18T04:52:36.412Z,20.31
2022-08-18T04:54:44.728Z,20.63
2022-08-18T04:57:50.420Z,20.70
2022-08-18T05:01:11.057Z,21.23
2022-08-18T05:04:22.289Z,21.42
2022-08-18T05:07:30.562Z,21.83
2022-08-18T05:10:36.292Z,22.49
2022-08-18T05:13:43.127Z,23.32
2022-08-18T05:16:49.668Z,24.18
2022-08-18T05:19:55.419Z,24.42
2022-08-18T05:23:03.850Z,24.24
2022-08-18T05:26:09.677Z,24.75
2022-08-18T05:29:19.141Z,24.71
2022-08-18T05:32:41.099Z,24.51
2022-08-18T05:36:15.464Z,24.51
2022-08-18T05:39:30.580Z,24.89
2022-08-18T05:42:42.864Z,25.70
2022-08-18T05:45:54.816Z,25.74
2022-08-18T05:49:00.467Z,25.99
2022-08-18T05:52:17.212Z,26.27
2022-08-18T05:55:49.671Z,25.95
2022-08-18T05:58:59.158Z,25.79
2022-08-18T06:02:28.115Z,25.43
2022-08-18T06:05:41.400Z,24.94
2022-08-18T06:08:55.454Z,25.17
2022-08-18T06:12:14.827Z,25.44
2022-08-18T06:15:32.819Z,25.68
2022-08-18T06:18:57.510Z,25.85
2022-08-18T06:22:19.388Z,26.44
2022-08-18T06:25:38.958Z,26.57
2022-08-18T06:29:12.127Z,26.56
2022-08-18T06:32:38.152Z,26.20
2022-08-18T06:35:56.933Z,27.17
2022-08-18T06:39:20.749Z,27.48
2022-08-18T06:42:32.814Z,27.95
2022-08-18T06:45:52.334Z,28.51
2022-08-18T06:49:06.949Z,28.50
2022-08-18T06:52:31.244Z,28.48
2022-08-18T06:55:40.929Z,28.62
2022-08-18T06:58:51.213Z,28.88
2022-08-18T07:02:07.924Z,29.31
2022-08-18T07:05:28.780Z,29.61
2022-08-18T07:08:40.515Z,29.68
2022-08-18T07:12:10.144Z,29.91
2022-08-18T07:15:26.138Z,29.58
2022-08-18T07:18:34.740Z,29.27
2022-08-18T07:21:43.854Z,28.55
2022-08-18T07:24:54.511Z,28.44
2022-08-18T07:28:02.227Z,28.00
2022-08-18T07:31:25.216Z,28.96
2022-08-18T07:34:42.457Z,28.48
2022-08-18T07:38:40.885Z,29.65
2022-08-18T07:41:56.342Z,29.81
2022-08-18T07:45:12.900Z,29.31
2022-08-18T07:48:39.916Z,28.63
2022-08-18T07:51:57.063Z,29.41
2022-08-18T07:55:27.494Z,29.51
2022-08-18T07:58:47.605Z,29.74
2022-08-18T08:02:21.207Z,29.63
2022-08-18T08:06:00.508Z,29.50
2022-08-18T08:09:55.783Z,30.37
2022-08-18T08:13:54.168Z,30.66
2022-08-18T08:17:25.841Z,30.74
2022-08-18T08:20:46.318Z,30.63
2022-08-18T08:24:08.773Z,30.32
2022-08-18T08:27:39.017Z,28.56
2022-08-18T08:31:33.103Z,27.66
2022-08-18T08:34:53.495Z,28.66
2022-08-18T08:38:39.335Z,29.54
2022-08-18T08:41:51.405Z,30.13
2022-08-18T08:45:09.855Z,30.85
2022-08-18T08:48:26.482Z,30.02
2022-08-18T08:51:42.785Z,30.61
2022-08-18T08:54:57.286Z,30.58
2022-08-18T08:58:24.766Z,30.69
2022-08-18T09:01:56.055Z,30.52
2022-08-18T09:05:17.839Z,31.18
2022-08-18T09:09:01.964Z,31.23
2022-08-18T09:12:42.211Z,31.13
2022-08-18T09:16:18.180Z,31.02
2022-08-18T09:20:05.221Z,31.17
2022-08-18T09:23:22.129Z,31.45
2022-08-18T09:26:43.752Z,30.16
2022-08-18T09:29:57.639Z,30.89
2022-08-18T09:33:37.517Z,30.71
2022-08-18T09:37:16.378Z,31.41
2022-08-18T09:41:01.704Z,29.60
2022-08-18T09:44:21.186Z,30.32
2022-08-18T09:48:03.459Z,30.27
2022-08-18T09:51:41.312Z,30.60
2022-08-18T09:55:02.147Z,31.54
2022-08-18T10:01:52.483Z,31.86
2022-08-18T10:05:31.501Z,31.40
2022-08-18T10:09:35.994Z,31.42
2022-08-18T10:13:24.734Z,31.03
2022-08-18T10:17:13.230Z,31.25
2022-08-18T10:20:38.977Z,31.30
2022-08-18T10:24:21.967Z,32.06
2022-08-18T10:27:57.731Z,31.06
2022-08-18T10:31:09.753Z,31.08
2022-08-18T10:34:36.617Z,31.42
2022-08-18T10:37:51.194Z,31.21
2022-08-18T10:44:44.779Z,30.56
2022-08-18T10:48:24.351Z,29.99
2022-08-18T10:52:02.107Z,30.63
2022-08-18T10:55:48.283Z,30.69
2022-08-18T10:59:17.980Z,31.05
2022-08-18T11:03:02.669Z,30.91
2022-08-18T11:06:26.858Z,31.08
2022-08-18T11:09:35.188Z,30.81
2022-08-18T11:13:12.233Z,30.92
2022-08-18T11:16:39.078Z,30.83
2022-08-18T11:19:50.783Z,31.07
2022-08-18T11:23:05.800Z,31.24
2022-08-18T11:26:19.554Z,30.77
2022-08-18T11:29:35.028Z,30.36
2022-08-18T11:32:51.542Z,30.25
2022-08-18T11:36:09.239Z,30.38
2022-08-18T11:39:35.973Z,30.63
2022-08-18T11:42:58.243Z,30.96
2022-08-18T11:46:17.535Z,30.64
2022-08-18T11:49:35.982Z,31.19
2022-08-18T11:52:57.179Z,30.56
2022-08-18T11:56:17.978Z,30.49
2022-08-18T11:59:52.734Z,30.57
2022-08-18T12:03:05.993Z,30.56
2022-08-18T12:06:27.978Z,30.25
2022-08-18T12:10:17.975Z,30.61
2022-08-18T12:13:27.376Z,30.19
2022-08-18T12:16:46.575Z,29.92
2022-08-18T12:20:02.576Z,30.03
2022-08-18T12:23:23.451Z,30.34
2022-08-18T12:26:38.836Z,30.76
2022-08-18T12:29:53.745Z,30.39
2022-08-18T12:33:07.819Z,30.58
2022-08-18T12:36:19.041Z,30.67
2022-08-18T12:39:28.804Z,30.66
2022-08-18T12:42:40.680Z,30.62
2022-08-18T12:45:47.291Z,30.49
2022-08-18T12:48:55.910Z,30.78
2022-08-18T12:52:03.380Z,30.59
2022-08-18T12:55:22.009Z,30.53
2022-08-18T12:58:31.453Z,30.12
2022-08-18T13:01:43.820Z,30.14
2022-08-18T13:04:49.507Z,30.41
2022-08-18T13:07:56.294Z,30.27
2022-08-18T13:11:14.500Z,29.44
2022-08-18T13:14:32.224Z,28.97
2022-08-18T13:17:41.593Z,29.07
2022-08-18T13:20:51.299Z,29.16
2022-08-18T13:23:57.467Z,29.53
2022-08-18T13:27:18.657Z,29.52
2022-08-18T13:30:32.887Z,29.80
2022-08-18T13:33:56.848Z,29.84
2022-08-18T13:37:03.391Z,29.82
2022-08-18T13:40:10.550Z,29.13
2022-08-18T13:43:23.278Z,29.51
2022-08-18T13:46:31.810Z,29.64
2022-08-18T13:49:37.637Z,29.69
2022-08-18T13:52:44.814Z,29.46
2022-08-18T13:55:51.806Z,29.46
2022-08-18T13:58:57.420Z,29.53
2022-08-18T14:02:11.716Z,29.57
2022-08-18T14:05:19.075Z,29.25
2022-08-18T14:08:29.309Z,29.27
2022-08-18T14:11:41.837Z,29.24
2022-08-18T14:14:47.704Z,29.13
2022-08-18T14:17:56.072Z,29.03
2022-08-18T14:21:17.041Z,29.19
2022-08-18T14:24:41.320Z,29.15
2022-08-18T14:27:56.695Z,29.10
2022-08-18T14:31:07.027Z,29.22
2022-08-18T14:34:15.473Z,28.60
2022-08-18T14:37:27.929Z,28.91
2022-08-18T14:40:35.095Z,28.96
2022-08-18T14:44:05.479Z,29.13
2022-08-18T14:47:07.644Z,29.00
2022-08-18T14:50:15.972Z,28.98
2022-08-18T14:53:33.846Z,29.05
2022-08-18T14:56:41.402Z,29.25
2022-08-18T14:59:47.831Z,29.09
2022-08-18T15:02:53.449Z,29.13
2022-08-18T15:06:06.417Z,29.14
2022-08-18T15:09:20.350Z,29.10
2022-08-18T15:12:35.357Z,29.07
2022-08-18T15:15:50.557Z,29.14
2022-08-18T15:18:57.045Z,29.31
2022-08-18T15:22:17.643Z,29.23
2022-08-18T15:25:45.056Z,29.26
2022-08-18T15:28:50.934Z,29.23
2022-08-18T15:32:10.257Z,29.10
2022-08-18T15:35:23.244Z,29.23
2022-08-18T15:38:31.567Z,29.04
2022-08-18T15:41:43.974Z,29.07
2022-08-18T15:44:52.577Z,29.12
2022-08-18T15:47:59.666Z,29.00
2022-08-18T15:51:12.542Z,29.28
2022-08-18T15:54:20.904Z,29.08
2022-08-18T15:57:39.197Z,28.86
2022-08-18T16:00:50.480Z,28.93
2022-08-18T16:04:10.378Z,28.77
2022-08-18T16:07:25.188Z,28.80
2022-08-18T16:10:54.325Z,28.61
2022-08-18T16:14:05.339Z,28.66
2022-08-18T16:17:23.462Z,28.52
2022-08-18T16:20:36.947Z,28.44
2022-08-18T16:23:45.256Z,28.37
2022-08-18T16:26:59.772Z,28.36
2022-08-18T16:30:07.502Z,28.24
2022-08-18T16:33:25.253Z,27.97
2022-08-18T16:36:30.965Z,28.00
2022-08-18T16:39:36.733Z,27.91
2022-08-18T16:42:46.026Z,27.92
2022-08-18T16:45:57.323Z,27.89
2022-08-18T16:49:08.307Z,27.78
2022-08-18T16:52:15.699Z,27.66
2022-08-18T16:55:21.383Z,27.67
2022-08-18T16:58:41.982Z,27.50
2022-08-18T17:02:00.339Z,27.52
2022-08-18T17:05:06.977Z,27.43
2022-08-18T17:08:13.164Z,27.28
2022-08-18T17:11:27.427Z,27.25
2022-08-18T17:14:38.194Z,27.09
2022-08-18T17:17:44.209Z,26.95
2022-08-18T17:20:50.675Z,26.66
2022-08-18T17:23:58.773Z,26.63
2022-08-18T17:27:26.558Z,26.43
2022-08-18T17:30:49.220Z,26.30
2022-08-18T17:34:18.881Z,26.09
2022-08-18T17:37:26.848Z,25.95
2022-08-18T17:40:43.190Z,25.88
2022-08-18T17:43:49.999Z,25.82
2022-08-18T17:47:03.337Z,25.77
2022-08-18T17:50:45.824Z,25.64
2022-08-18T17:53:52.273Z,25.50
2022-08-18T17:57:05.775Z,25.45
2022-08-18T18:00:23.616Z,25.33
2022-08-18T18:03:34.232Z,25.36
2022-08-18T18:06:46.277Z,25.33
2022-08-18T18:10:08.477Z,25.20
2022-08-18T18:13:32.605Z,25.15
2022-08-18T18:16:39.100Z,25.11
2022-08-18T18:19:52.285Z,25.02
2022-08-18T18:22:59.176Z,24.97
2022-08-18T18:26:36.719Z,24.87
2022-08-18T18:29:43.325Z,24.86
2022-08-18T18:33:08.120Z,24.81
2022-08-18T18:36:36.981Z,24.76
2022-08-18T18:39:42.593Z,24.71
2022-08-18T18:42:48.368Z,24.60
2022-08-18T18:46:34.896Z,24.52
2022-08-18T18:49:55.570Z,24.46
2022-08-18T18:53:23.738Z,24.40
2022-08-18T18:56:38.913Z,24.32
2022-08-18T19:00:10.615Z,24.27
2022-08-18T19:03:26.918Z,24.27
2022-08-18T19:06:44.294Z,24.05
2022-08-18T19:10:09.769Z,23.96
2022-08-18T19:13:32.295Z,23.89
2022-08-18T19:16:49.856Z,23.80
2022-08-18T19:20:05.650Z,23.60
2022-08-18T19:23:44.557Z,23.44
2022-08-18T19:27:02.750Z,23.40
2022-08-18T19:30:20.149Z,23.31
2022-08-18T19:33:46.607Z,23.23
2022-08-18T19:37:05.878Z,23.20
2022-08-18T19:40:21.660Z,23.16
2022-08-18T19:43:45.146Z,23.12
2022-08-18T19:46:57.362Z,23.13
2022-08-18T19:50:18.477Z,23.09
2022-08-18T19:54:07.614Z,23.08
2022-08-18T19:57:37.453Z,23.00
2022-08-18T20:00:58.362Z,22.93
2022-08-18T20:04:31.154Z,22.86
2022-08-18T20:08:11.509Z,22.83
2022-08-18T20:11:46.625Z,22.79
2022-08-18T20:15:16.828Z,22.77
2022-08-18T20:18:36.005Z,22.71
2022-08-18T20:21:51.357Z,22.62
2022-08-18T20:25:12.564Z,22.49
2022-08-18T20:28:38.741Z,22.39
2022-08-18T20:32:06.471Z,22.46
2022-08-18T20:35:32.615Z,22.44
2022-08-18T20:38:45.841Z,22.34
2022-08-18T20:41:52.095Z,22.25
2022-08-18T20:45:05.802Z,22.23
2022-08-18T20:48:47.611Z,22.22
2022-08-18T20:52:07.085Z,22.22
2022-08-18T20:55:36.434Z,22.26
2022-08-18T20:58:57.765Z,22.16
2022-08-18T21:02:08.911Z,22.20
2022-08-18T21:05:16.642Z,22.18
2022-08-18T21:08:41.440Z,22.17
2022-08-18T21:11:52.719Z,22.14
2022-08-18T21:15:03.168Z,22.20
2022-08-18T21:18:21.824Z,22.22
2022-08-18T21:21:33.197Z,22.31
2022-08-18T21:24:50.153Z,22.32
2022-08-18T21:27:57.664Z,22.34
2022-08-18T21:31:42.510Z,22.24
2022-08-18T21:34:43.023Z,22.23
2022-08-18T21:37:59.931Z,22.23
2022-08-18T21:41:16.802Z,22.18
2022-08-18T21:44:29.122Z,22.19
2022-08-18T21:47:37.991Z,22.13
2022-08-18T21:50:58.403Z,22.13
2022-08-18T21:54:28.127Z,22.05
2022-08-18T21:58:03.844Z,22.07
2022-08-18T22:01:26.190Z,22.00
2022-08-18T22:04:36.452Z,21.97
2022-08-18T22:07:50.143Z,21.91
2022-08-18T22:12:01.313Z,21.90
2022-08-18T22:15:18.971Z,21.82
2022-08-18T22:18:42.488Z,21.80
2022-08-18T22:21:56.592Z,21.76
2022-08-18T22:25:00.246Z,21.74
2022-08-18T22:28:06.294Z,21.74
2022-08-18T22:31:21.057Z,21.66
2022-08-18T22:34:34.455Z,21.52
2022-08-18T22:37:50.805Z,21.59
2022-08-18T22:40:56.992Z,21.60
2022-08-18T22:44:05.843Z,21.49
2022-08-18T22:47:14.516Z,21.49
2022-08-18T22:50:38.284Z,21.46
2022-08-18T22:53:46.738Z,21.42
2022-08-18T22:56:57.643Z,21.36
2022-08-18T23:00:10.626Z,21.29
2022-08-18T23:03:42.378Z,21.23
2022-08-18T23:06:52.160Z,21.05
2022-08-18T23:10:00.207Z,20.97
2022-08-18T23:13:09.242Z,20.91
2022-08-18T23:16:31.863Z,20.85
2022-08-18T23:19:40.924Z,20.78
2022-08-18T23:22:47.034Z,20.89
2022-08-18T23:25:52.793Z,20.91
2022-08-18T23:28:58.329Z,20.83
2022-08-18T23:32:05.314Z,20.81
2022-08-18T23:35:13.641Z,20.79
2022-08-18T23:38:20.243Z,20.66
2022-08-18T23:41:28.539Z,20.67
2022-08-18T23:44:34.376Z,20.70
2022-08-18T23:47:41.597Z,20.57
2022-08-18T23:50:53.620Z,20.54
2022-08-18T23:54:05.247Z,20.47
2022-08-18T23:57:10.856Z,20.47
